createdAt,value
2023-02-09T00:00:09.529Z,83.40
2023-02-09T00:02:44.803Z,84.28
2023-02-09T00:05:14.590Z,83.87
2023-02-09T00:07:41.192Z,83.78
2023-02-09T00:10:08.258Z,84.39
2023-02-09T00:12:55.518Z,84.59
2023-02-09T00:15:22.129Z,83.75
2023-02-09T00:17:48.743Z,83.28
2023-02-09T00:20:15.305Z,83.64
2023-02-09T00:22:41.898Z,83.11
2023-02-09T00:25:08.483Z,83.07
2023-02-09T00:27:35.831Z,82.92
2023-02-09T00:30:04.398Z,82.87
2023-02-09T00:32:33.031Z,83.10
2023-02-09T00:34:59.616Z,83.24
2023-02-09T00:37:28.044Z,83.17
2023-02-09T00:39:54.693Z,82.97
2023-02-09T00:42:21.193Z,83.57
2023-02-09T00:44:47.765Z,82.21
2023-02-09T00:47:14.704Z,82.39
2023-02-09T00:49:41.377Z,81.86
2023-02-09T00:52:09.935Z,82.40
2023-02-09T00:54:37.119Z,82.64
2023-02-09T00:57:05.489Z,82.94
2023-02-09T00:59:34.891Z,81.23
2023-02-09T01:02:02.609Z,81.90
2023-02-09T01:04:29.399Z,82.40
2023-02-09T01:06:56.128Z,82.88
2023-02-09T01:09:22.764Z,82.34
2023-02-09T01:11:49.465Z,82.68
2023-02-09T01:14:16.550Z,82.37
2023-02-09T01:16:43.260Z,82.61
2023-02-09T01:19:12.127Z,81.76
2023-02-09T01:21:39.005Z,82.45
2023-02-09T01:24:06.107Z,81.89
2023-02-09T01:26:33.035Z,82.13
2023-02-09T01:28:59.608Z,82.60
2023-02-09T01:31:32.234Z,82.52
2023-02-09T01:34:01.723Z,82.51
2023-02-09T01:36:29.738Z,82.93
2023-02-09T01:38:58.111Z,82.68
2023-02-09T01:41:25.265Z,82.96
2023-02-09T01:44:05.221Z,82.95
2023-02-09T01:46:36.243Z,82.58
2023-02-09T01:49:03.047Z,83.27
2023-02-09T01:51:33.005Z,83.13
2023-02-09T01:53:59.746Z,83.40
2023-02-09T01:56:30.821Z,83.14
2023-02-09T01:58:58.545Z,82.50
2023-02-09T02:01:26.816Z,83.62
2023-02-09T02:03:54.446Z,83.80
2023-02-09T02:06:21.504Z,82.71
2023-02-09T02:09:04.686Z,83.59
2023-02-09T02:11:32.885Z,83.82
2023-02-09T02:13:59.755Z,83.89
2023-02-09T02:16:48.574Z,84.07
2023-02-09T02:20:12.739Z,84.90
2023-02-09T02:22:52.199Z,84.43
2023-02-09T02:25:34.848Z,83.98
2023-02-09T02:28:16.993Z,84.22
2023-02-09T02:31:08.279Z,84.50
2023-02-09T02:34:11.195Z,85.06
2023-02-09T02:36:57.954Z,85.12
2023-02-09T02:39:33.615Z,84.43
2023-02-09T02:42:32.515Z,84.85
2023-02-09T02:45:12.161Z,86.26
2023-02-09T02:47:40.453Z,86.22
2023-02-09T02:50:15.151Z,86.39
2023-02-09T02:52:46.428Z,86.43
2023-02-09T02:55:17.326Z,86.42
2023-02-09T02:57:48.364Z,86.57
2023-02-09T03:00:32.197Z,86.77
2023-02-09T03:03:03.869Z,86.77
2023-02-09T03:05:32.033Z,86.87
2023-02-09T03:07:58.763Z,87.53
2023-02-09T03:10:37.784Z,86.63
2023-02-09T03:13:13.457Z,86.35
2023-02-09T03:16:03.103Z,86.85
2023-02-09T03:18:40.437Z,85.92
2023-02-09T03:21:25.109Z,86.21
2023-02-09T03:23:58.966Z,86.40
2023-02-09T03:26:30.294Z,86.88
2023-02-09T03:28:59.025Z,86.99
2023-02-09T03:31:27.999Z,87.83
2023-02-09T03:33:57.482Z,87.83
2023-02-09T03:36:25.661Z,88.25
2023-02-09T03:38:52.294Z,88.51
2023-02-09T03:41:19.200Z,87.91
2023-02-09T03:44:04.150Z,88.00
2023-02-09T03:46:33.329Z,87.69
2023-02-09T03:49:00.061Z,87.78
2023-02-09T03:51:26.780Z,87.84
2023-02-09T03:53:53.411Z,88.04
2023-02-09T03:56:19.977Z,87.70
2023-02-09T03:58:46.561Z,87.73
2023-02-09T04:01:13.172Z,87.55
2023-02-09T04:03:39.871Z,87.12
2023-02-09T04:06:09.920Z,87.43
2023-02-09T04:08:36.700Z,88.16
2023-02-09T04:11:03.659Z,88.27
2023-02-09T04:13:30.252Z,88.07
2023-02-09T04:15:56.833Z,88.38
2023-02-09T04:18:23.469Z,88.45
2023-02-09T04:20:50.108Z,88.63
2023-02-09T04:23:17.332Z,89.72
2023-02-09T04:25:44.734Z,89.00
2023-02-09T04:28:11.464Z,89.09
2023-02-09T04:30:38.194Z,88.77
2023-02-09T04:33:04.884Z,88.96
2023-02-09T04:35:31.539Z,87.82
2023-02-09T04:37:58.111Z,88.30
2023-02-09T04:40:24.642Z,88.52
2023-02-09T04:42:51.256Z,89.22
2023-02-09T04:45:17.961Z,88.74
2023-02-09T04:47:44.558Z,88.41
2023-02-09T04:50:15.044Z,89.04
2023-02-09T04:52:41.592Z,88.33
2023-02-09T04:55:08.435Z,88.83
2023-02-09T04:57:53.707Z,88.77
2023-02-09T05:00:20.420Z,88.97
2023-02-09T05:02:46.961Z,88.81
2023-02-09T05:05:13.616Z,88.27
2023-02-09T05:07:40.508Z,88.40
2023-02-09T05:10:07.315Z,88.45
2023-02-09T05:12:33.872Z,88.88
2023-02-09T05:15:00.470Z,88.40
2023-02-09T05:17:27.037Z,88.74
2023-02-09T05:19:53.679Z,88.60
2023-02-09T05:22:20.286Z,88.89
2023-02-09T05:24:46.834Z,89.25
2023-02-09T05:27:13.477Z,88.77
2023-02-09T05:29:40.133Z,88.84
2023-02-09T05:32:06.836Z,88.33
2023-02-09T05:34:33.542Z,87.94
2023-02-09T05:37:00.111Z,87.84
2023-02-09T05:39:26.728Z,87.36
2023-02-09T05:42:11.955Z,88.06
2023-02-09T05:44:38.545Z,88.05
2023-02-09T05:47:05.170Z,87.67
2023-02-09T05:49:31.844Z,87.38
2023-02-09T05:51:58.421Z,87.86
2023-02-09T05:54:25.067Z,87.64
2023-02-09T05:56:51.729Z,88.36
2023-02-09T05:59:18.491Z,88.50
2023-02-09T06:01:45.075Z,89.01
2023-02-09T06:04:11.991Z,88.55
2023-02-09T06:06:38.556Z,88.76
2023-02-09T06:09:05.351Z,89.97
2023-02-09T06:11:31.940Z,89.96
2023-02-09T06:13:58.710Z,89.40
2023-02-09T06:16:25.917Z,89.29
2023-02-09T06:18:52.594Z,89.63
2023-02-09T06:21:19.296Z,89.64
2023-02-09T06:23:46.137Z,89.81
2023-02-09T06:26:15.881Z,89.95
2023-02-09T06:28:43.122Z,89.89
2023-02-09T06:31:10.380Z,89.87
2023-02-09T06:33:38.072Z,90.12
2023-02-09T06:36:06.142Z,89.98
2023-02-09T06:38:34.375Z,90.57
2023-02-09T06:41:01.089Z,89.92
2023-02-09T06:43:27.779Z,89.68
2023-02-09T06:45:54.542Z,90.03
2023-02-09T06:48:21.202Z,89.73
2023-02-09T06:50:48.193Z,89.91
2023-02-09T06:53:16.075Z,90.42
2023-02-09T06:55:42.694Z,90.54
2023-02-09T06:58:09.627Z,90.55
2023-02-09T07:00:36.322Z,90.77
2023-02-09T07:03:03.359Z,90.93
2023-02-09T07:05:31.419Z,91.03
2023-02-09T07:07:58.049Z,90.46
2023-02-09T07:10:25.062Z,90.58
2023-02-09T07:12:51.702Z,90.88
2023-02-09T07:15:18.399Z,90.55
2023-02-09T07:17:45.004Z,90.80
2023-02-09T07:20:12.661Z,90.32
2023-02-09T07:22:39.286Z,91.21
2023-02-09T07:25:06.346Z,91.42
2023-02-09T07:27:32.925Z,90.80
2023-02-09T07:30:01.078Z,90.88
2023-02-09T07:32:28.030Z,90.85
2023-02-09T07:34:54.641Z,90.43
2023-02-09T07:37:21.196Z,90.54
2023-02-09T07:39:48.018Z,89.80
2023-02-09T07:42:14.743Z,89.54
2023-02-09T07:44:48.927Z,89.27
2023-02-09T07:47:15.624Z,89.40
2023-02-09T07:49:42.371Z,89.55
2023-02-09T07:52:08.960Z,88.72
2023-02-09T07:54:35.573Z,88.64
2023-02-09T07:57:02.111Z,88.02
2023-02-09T07:59:28.780Z,86.59
2023-02-09T08:01:55.410Z,86.87
2023-02-09T08:04:22.785Z,85.56
2023-02-09T08:06:49.631Z,86.12
2023-02-09T08:09:19.481Z,85.31
2023-02-09T08:11:58.465Z,84.29
2023-02-09T08:14:39.944Z,84.14
2023-02-09T08:17:24.391Z,83.29
2023-02-09T08:20:06.503Z,82.93
2023-02-09T08:22:38.521Z,82.45
2023-02-09T08:25:06.171Z,82.04
2023-02-09T08:27:32.956Z,81.81
2023-02-09T08:30:00.642Z,80.60
2023-02-09T08:32:27.289Z,79.84
2023-02-09T08:34:53.894Z,79.74
2023-02-09T08:37:20.499Z,78.48
2023-02-09T08:39:47.157Z,78.32
2023-02-09T08:42:13.721Z,78.06
2023-02-09T08:44:40.289Z,78.72
2023-02-09T08:47:06.827Z,75.86
2023-02-09T08:49:33.493Z,76.25
2023-02-09T08:52:00.057Z,76.54
2023-02-09T08:54:27.041Z,75.01
2023-02-09T08:56:53.806Z,76.34
2023-02-09T08:59:21.894Z,76.32
2023-02-09T09:01:48.485Z,76.03
2023-02-09T09:04:15.092Z,74.63
2023-02-09T09:06:42.764Z,75.40
2023-02-09T09:09:11.679Z,74.19
2023-02-09T09:11:38.660Z,74.13
2023-02-09T09:14:05.294Z,71.96
2023-02-09T09:16:32.138Z,75.45
2023-02-09T09:18:59.229Z,75.06
2023-02-09T09:21:26.019Z,74.96
2023-02-09T09:23:52.789Z,73.96
2023-02-09T09:26:19.436Z,72.70
2023-02-09T09:28:50.146Z,73.40
2023-02-09T09:31:18.205Z,73.05
2023-02-09T09:33:45.603Z,72.58
2023-02-09T09:36:14.574Z,72.17
2023-02-09T09:38:41.260Z,72.06
2023-02-09T09:41:32.019Z,71.62
2023-02-09T09:44:00.638Z,71.41
2023-02-09T09:46:39.929Z,71.59
2023-02-09T09:49:07.686Z,69.72
2023-02-09T09:51:44.608Z,71.61
2023-02-09T09:54:20.197Z,71.29
2023-02-09T09:56:47.843Z,69.92
2023-02-09T09:59:21.704Z,69.95
2023-02-09T10:01:51.253Z,70.00
2023-02-09T10:04:18.193Z,70.74
2023-02-09T10:06:56.421Z,70.06
2023-02-09T10:09:33.441Z,69.98
2023-02-09T10:12:36.947Z,69.06
2023-02-09T10:15:36.739Z,70.06
2023-02-09T10:18:06.549Z,69.19
2023-02-09T10:20:49.521Z,67.81
2023-02-09T10:23:22.166Z,67.87
2023-02-09T10:25:57.378Z,68.08
2023-02-09T10:28:27.196Z,67.92
2023-02-09T10:30:55.995Z,65.00
2023-02-09T10:33:22.597Z,62.78
2023-02-09T10:35:55.212Z,62.08
2023-02-09T10:38:26.155Z,61.88
2023-02-09T10:40:53.154Z,60.46
2023-02-09T10:43:25.965Z,60.21
2023-02-09T10:45:56.380Z,60.85
2023-02-09T10:48:25.169Z,59.51
2023-02-09T10:51:05.232Z,59.37
2023-02-09T10:53:38.544Z,57.81
2023-02-09T10:56:14.351Z,57.55
2023-02-09T10:58:41.062Z,57.45
2023-02-09T11:01:26.454Z,58.72
2023-02-09T11:04:05.180Z,56.78
2023-02-09T11:06:59.181Z,57.55
2023-02-09T11:09:33.273Z,56.90
2023-02-09T11:12:00.474Z,57.14
2023-02-09T11:14:27.514Z,55.00
2023-02-09T11:17:28.267Z,54.46
2023-02-09T11:20:23.347Z,54.78
2023-02-09T11:23:11.437Z,55.78
2023-02-09T11:25:45.406Z,54.63
2023-02-09T11:28:39.633Z,54.63
2023-02-09T11:31:31.213Z,54.69
2023-02-09T11:34:43.465Z,53.34
2023-02-09T11:37:21.918Z,52.33
2023-02-09T11:39:57.510Z,53.65
2023-02-09T11:42:46.970Z,53.78
2023-02-09T11:45:20.656Z,53.32
2023-02-09T11:48:05.841Z,52.54
2023-02-09T11:50:38.560Z,53.38
2023-02-09T11:53:37.098Z,52.84
2023-02-09T11:56:11.220Z,52.85
2023-02-09T11:58:47.297Z,52.86
2023-02-09T12:01:48.812Z,52.74
2023-02-09T12:04:24.676Z,52.76
2023-02-09T12:06:55.880Z,51.36
2023-02-09T12:09:43.520Z,52.36
2023-02-09T12:12:31.386Z,52.51
2023-02-09T12:15:00.873Z,51.98
2023-02-09T12:17:41.437Z,51.92
2023-02-09T12:20:28.391Z,52.21
2023-02-09T12:22:58.073Z,51.99
2023-02-09T12:25:45.808Z,51.45
2023-02-09T12:28:14.508Z,51.85
2023-02-09T12:30:41.136Z,52.92
2023-02-09T12:33:17.383Z,52.27
2023-02-09T12:36:00.938Z,51.33
2023-02-09T12:38:49.305Z,50.76
2023-02-09T12:41:18.854Z,51.36
2023-02-09T12:43:46.417Z,51.23
2023-02-09T12:46:15.266Z,52.48
2023-02-09T12:49:01.638Z,52.37
2023-02-09T12:52:00.638Z,51.42
2023-02-09T12:54:46.634Z,50.98
2023-02-09T12:57:16.617Z,51.29
2023-02-09T12:59:52.359Z,50.29
2023-02-09T13:02:50.580Z,49.93
2023-02-09T13:05:18.640Z,50.50
2023-02-09T13:07:54.360Z,50.96
2023-02-09T13:10:42.637Z,50.42
2023-02-09T13:13:11.965Z,49.68
2023-02-09T13:15:47.896Z,51.09
2023-02-09T13:18:23.945Z,51.51
2023-02-09T13:20:57.528Z,49.54
2023-02-09T13:23:33.680Z,50.01
2023-02-09T13:26:22.599Z,49.13
2023-02-09T13:28:49.566Z,49.74
2023-02-09T13:31:26.395Z,49.79
2023-02-09T13:33:58.547Z,50.40
2023-02-09T13:36:25.574Z,50.41
2023-02-09T13:38:52.736Z,50.60
2023-02-09T13:41:36.501Z,50.22
2023-02-09T13:44:03.576Z,49.55
2023-02-09T13:46:34.982Z,49.62
2023-02-09T13:49:19.270Z,49.63
2023-02-09T13:51:46.278Z,49.73
2023-02-09T13:54:20.493Z,49.51
2023-02-09T13:56:47.252Z,50.11
2023-02-09T13:59:18.061Z,50.10
2023-02-09T14:01:48.260Z,50.64
2023-02-09T14:04:25.490Z,51.31
2023-02-09T14:07:10.217Z,49.51
2023-02-09T14:09:49.118Z,49.41
2023-02-09T14:12:43.534Z,50.10
2023-02-09T14:15:31.928Z,49.94
2023-02-09T14:17:58.536Z,49.87
2023-02-09T14:20:25.607Z,49.40
2023-02-09T14:23:00.965Z,49.32
2023-02-09T14:25:29.787Z,49.79
2023-02-09T14:27:57.169Z,50.15
2023-02-09T14:30:32.150Z,49.74
2023-02-09T14:33:01.781Z,50.50
2023-02-09T14:35:40.664Z,50.92
2023-02-09T14:38:42.352Z,50.71
2023-02-09T14:41:26.553Z,51.18
2023-02-09T14:44:22.555Z,51.68
2023-02-09T14:46:49.253Z,51.02
2023-02-09T14:49:16.146Z,51.48
2023-02-09T14:51:43.756Z,52.14
2023-02-09T14:54:18.989Z,51.56
2023-02-09T14:56:46.046Z,51.66
2023-02-09T14:59:16.956Z,51.72
2023-02-09T15:01:44.291Z,52.14
2023-02-09T15:04:10.885Z,51.42
2023-02-09T15:06:39.198Z,52.01
2023-02-09T15:09:06.965Z,52.52
2023-02-09T15:11:53.105Z,51.55
2023-02-09T15:14:24.558Z,52.27
2023-02-09T15:16:51.879Z,51.72
2023-02-09T15:19:21.996Z,51.98
2023-02-09T15:22:05.264Z,51.61
2023-02-09T15:24:33.967Z,52.12
2023-02-09T15:27:01.827Z,51.46
2023-02-09T15:29:28.948Z,52.29
2023-02-09T15:31:56.080Z,52.39
2023-02-09T15:34:23.312Z,52.13
2023-02-09T15:36:50.797Z,52.42
2023-02-09T15:39:23.527Z,52.65
2023-02-09T15:42:09.560Z,52.73
2023-02-09T15:44:55.294Z,52.13
2023-02-09T15:47:40.837Z,52.62
2023-02-09T15:50:07.887Z,52.38
2023-02-09T15:52:35.005Z,52.64
2023-02-09T15:55:02.425Z,54.10
2023-02-09T15:57:29.455Z,53.51
2023-02-09T15:59:56.844Z,54.11
2023-02-09T16:02:24.031Z,54.20
2023-02-09T16:04:51.060Z,54.56
2023-02-09T16:07:26.107Z,54.61
2023-02-09T16:09:53.408Z,55.35
2023-02-09T16:12:20.715Z,55.65
2023-02-09T16:14:47.997Z,55.34
2023-02-09T16:17:15.030Z,54.82
2023-02-09T16:19:42.097Z,54.82
2023-02-09T16:22:09.230Z,55.12
2023-02-09T16:24:45.115Z,55.50
2023-02-09T16:27:21.978Z,56.13
2023-02-09T16:29:49.084Z,56.81
2023-02-09T16:32:18.726Z,58.07
2023-02-09T16:34:46.285Z,58.62
2023-02-09T16:37:20.033Z,59.55
2023-02-09T16:39:47.299Z,58.96
2023-02-09T16:42:16.052Z,60.04
2023-02-09T16:44:43.881Z,60.73
2023-02-09T16:47:26.271Z,60.14
2023-02-09T16:50:00.762Z,60.52
2023-02-09T16:52:30.172Z,59.70
2023-02-09T16:55:00.970Z,61.33
2023-02-09T16:57:29.117Z,61.88
2023-02-09T16:59:56.497Z,60.65
2023-02-09T17:02:34.211Z,60.48
2023-02-09T17:05:04.020Z,59.96
2023-02-09T17:07:48.765Z,59.78
2023-02-09T17:10:23.073Z,59.04
2023-02-09T17:12:53.497Z,59.33
2023-02-09T17:15:31.724Z,59.45
2023-02-09T17:18:08.827Z,59.60
2023-02-09T17:20:44.637Z,59.23
2023-02-09T17:23:23.110Z,58.56
2023-02-09T17:25:51.777Z,58.31
2023-02-09T17:28:19.521Z,57.47
2023-02-09T17:30:48.271Z,56.74
2023-02-09T17:33:24.680Z,57.76
2023-02-09T17:38:44.924Z,57.56
2023-02-09T17:41:21.229Z,57.72
2023-02-09T17:43:50.765Z,58.31
2023-02-09T17:46:19.108Z,57.68
2023-02-09T17:48:47.565Z,57.89
2023-02-09T17:51:29.834Z,57.81
2023-02-09T17:53:57.085Z,58.47
2023-02-09T17:56:24.076Z,58.02
2023-02-09T17:58:51.262Z,58.59
2023-02-09T18:01:25.349Z,58.68
2023-02-09T18:03:58.767Z,58.83
2023-02-09T18:06:35.526Z,59.31
2023-02-09T18:09:04.789Z,58.58
2023-02-09T18:11:56.930Z,58.99
2023-02-09T18:14:25.130Z,58.30
2023-02-09T18:16:52.753Z,58.25
2023-02-09T18:19:20.080Z,58.36
2023-02-09T18:21:51.772Z,58.22
2023-02-09T18:24:20.349Z,58.76
2023-02-09T18:26:47.853Z,58.54
2023-02-09T18:29:14.626Z,58.61
2023-02-09T18:31:41.485Z,58.41
2023-02-09T18:34:08.337Z,57.88
2023-02-09T18:36:35.655Z,58.34
2023-02-09T18:39:02.491Z,58.55
2023-02-09T18:41:29.230Z,58.94
2023-02-09T18:43:56.265Z,58.30
2023-02-09T18:46:25.289Z,57.96
2023-02-09T18:48:52.078Z,57.53
2023-02-09T18:51:18.755Z,57.67
2023-02-09T18:53:45.391Z,58.00
2023-02-09T18:56:22.418Z,57.80
2023-02-09T18:58:52.581Z,57.69
2023-02-09T19:01:21.306Z,57.85
2023-02-09T19:03:52.311Z,58.17
2023-02-09T19:06:20.856Z,58.81
2023-02-09T19:08:50.130Z,58.86
2023-02-09T19:11:18.518Z,58.38
2023-02-09T19:14:08.217Z,58.78
2023-02-09T19:16:37.994Z,58.62
2023-02-09T19:19:04.764Z,58.51
2023-02-09T19:21:32.278Z,59.02
2023-02-09T19:23:58.918Z,58.90
2023-02-09T19:26:25.642Z,58.63
2023-02-09T19:28:52.232Z,58.74
2023-02-09T19:31:18.885Z,58.63
2023-02-09T19:33:45.556Z,59.16
2023-02-09T19:36:12.506Z,59.28
2023-02-09T19:38:39.081Z,59.36
2023-02-09T19:41:11.850Z,59.81
2023-02-09T19:43:39.839Z,60.83
2023-02-09T19:46:08.140Z,60.52
2023-02-09T19:48:34.765Z,60.65
2023-02-09T19:51:04.306Z,60.16
2023-02-09T19:53:31.533Z,60.78
2023-02-09T19:55:58.152Z,61.82
2023-02-09T19:58:24.867Z,62.44
2023-02-09T20:00:53.435Z,63.12
2023-02-09T20:03:20.064Z,63.90
2023-02-09T20:05:47.031Z,64.85
2023-02-09T20:08:17.061Z,65.60
2023-02-09T20:10:46.817Z,66.23
2023-02-09T20:13:14.989Z,66.08
2023-02-09T20:15:43.859Z,68.31
2023-02-09T20:18:13.380Z,68.46
2023-02-09T20:20:43.088Z,69.73
2023-02-09T20:23:10.092Z,70.92
2023-02-09T20:25:40.385Z,71.24
2023-02-09T20:28:07.246Z,72.53
2023-02-09T20:30:34.223Z,74.44
2023-02-09T20:33:01.105Z,74.87
2023-02-09T20:35:27.664Z,75.83
2023-02-09T20:37:54.307Z,76.51
2023-02-09T20:40:21.600Z,78.76
2023-02-09T20:43:07.210Z,78.80
2023-02-09T20:45:52.406Z,80.14
2023-02-09T20:48:19.736Z,79.99
2023-02-09T20:50:46.728Z,79.17
2023-02-09T20:53:13.539Z,79.30
2023-02-09T20:55:40.274Z,80.76
2023-02-09T20:58:06.999Z,80.71
2023-02-09T21:00:33.794Z,82.63
2023-02-09T21:03:00.682Z,82.51
2023-02-09T21:05:27.498Z,82.34
2023-02-09T21:07:54.258Z,82.57
2023-02-09T21:10:21.784Z,82.86
2023-02-09T21:12:48.379Z,83.96
2023-02-09T21:15:15.954Z,84.19
2023-02-09T21:17:47.837Z,84.39
2023-02-09T21:20:16.764Z,84.14
2023-02-09T21:22:43.443Z,85.05
2023-02-09T21:25:10.598Z,84.33
2023-02-09T21:27:40.535Z,84.76
2023-02-09T21:30:07.452Z,84.47
2023-02-09T21:32:35.027Z,85.21
2023-02-09T21:35:02.007Z,85.32
2023-02-09T21:37:32.179Z,85.60
2023-02-09T21:40:02.979Z,85.52
2023-02-09T21:42:31.207Z,85.35
2023-02-09T21:44:59.466Z,85.88
2023-02-09T21:47:31.456Z,86.24
2023-02-09T21:49:58.861Z,86.46
2023-02-09T21:52:26.550Z,87.48
2023-02-09T21:54:53.852Z,87.49
2023-02-09T21:57:21.312Z,87.04
2023-02-09T21:59:48.130Z,87.25
2023-02-09T22:02:17.184Z,86.96
2023-02-09T22:04:45.593Z,87.33
2023-02-09T22:07:13.401Z,87.94
2023-02-09T22:09:41.756Z,87.83
2023-02-09T22:12:08.928Z,88.29
2023-02-09T22:14:35.702Z,89.12
2023-02-09T22:17:02.551Z,90.35
2023-02-09T22:19:29.205Z,90.47
2023-02-09T22:21:57.947Z,90.12
2023-02-09T22:24:25.149Z,91.51
2023-02-09T22:26:51.903Z,92.37
2023-02-09T22:29:19.406Z,91.57
2023-02-09T22:31:46.333Z,91.39
2023-02-09T22:34:13.330Z,91.11
2023-02-09T22:36:40.057Z,91.49
2023-02-09T22:39:07.524Z,91.77
2023-02-09T22:41:34.953Z,90.75
2023-02-09T22:44:12.918Z,90.92
2023-02-09T22:46:41.372Z,91.99
2023-02-09T22:49:19.415Z,91.51
2023-02-09T22:51:47.871Z,92.99
2023-02-09T22:54:16.447Z,92.25
2023-02-09T22:56:43.487Z,92.43
2023-02-09T22:59:12.606Z,93.18
2023-02-09T23:01:39.709Z,92.22
2023-02-09T23:04:06.452Z,92.40
2023-02-09T23:06:33.116Z,91.77
2023-02-09T23:09:02.522Z,91.25
2023-02-09T23:11:30.662Z,92.01
2023-02-09T23:14:09.201Z,92.74
2023-02-09T23:16:38.181Z,91.82
2023-02-09T23:19:08.399Z,91.00
2023-02-09T23:21:38.148Z,91.31
2023-02-09T23:24:05.603Z,91.92
2023-02-09T23:26:32.822Z,91.74
2023-02-09T23:29:01.697Z,91.67
2023-02-09T23:31:28.755Z,91.32
2023-02-09T23:33:55.800Z,91.89
2023-02-09T23:36:25.166Z,92.54
2023-02-09T23:38:57.065Z,91.62
2023-02-09T23:41:24.942Z,91.23
2023-02-09T23:43:52.607Z,91.69
2023-02-09T23:46:22.025Z,92.37
2023-02-09T23:48:49.024Z,93.65
2023-02-09T23:51:19.311Z,93.65
2023-02-09T23:53:47.567Z,93.54
2023-02-09T23:56:15.692Z,93.81
2023-02-09T23:58:45.178Z,94.50
